sensor_id;sensor_type;location;lat;lon;timestamp;temperature;humidity
11577;DHT22;5844;51.496;6.788;2023-03-13T00:00:53;10.90;1.00
11577;DHT22;5844;51.496;6.788;2023-03-13T00:03:19;10.80;1.00
11577;DHT22;5844;51.496;6.788;2023-03-13T00:05:45;10.70;1.00
11577;DHT22;5844;51.496;6.788;2023-03-13T00:08:10;10.70;1.00
11577;DHT22;5844;51.496;6.788;2023-03-13T00:10:37;10.70;1.00
11577;DHT22;5844;51.496;6.788;2023-03-13T00:13:03;10.60;1.00
11577;DHT22;5844;51.496;6.788;2023-03-13T00:15:29;10.70;1.00
11577;DHT22;5844;51.496;6.788;2023-03-13T00:17:56;10.60;1.00
11577;DHT22;5844;51.496;6.788;2023-03-13T00:20:21;10.50;1.00
11577;DHT22;5844;51.496;6.788;2023-03-13T00:22:47;10.50;1.00
11577;DHT22;5844;51.496;6.788;2023-03-13T00:25:13;10.40;99.90
11577;DHT22;5844;51.496;6.788;2023-03-13T00:27:38;10.30;99.90
11577;DHT22;5844;51.496;6.788;2023-03-13T00:30:05;10.30;99.90
11577;DHT22;5844;51.496;6.788;2023-03-13T00:32:31;10.20;99.90
11577;DHT22;5844;51.496;6.788;2023-03-13T00:34:57;10.20;99.90
11577;DHT22;5844;51.496;6.788;2023-03-13T00:37:22;10.20;99.90
11577;DHT22;5844;51.496;6.788;2023-03-13T00:39:48;10.50;99.90
11577;DHT22;5844;51.496;6.788;2023-03-13T00:42:13;10.10;99.90
11577;DHT22;5844;51.496;6.788;2023-03-13T00:44:39;10.10;99.90
11577;DHT22;5844;51.496;6.788;2023-03-13T00:47:05;10.10;99.90
11577;DHT22;5844;51.496;6.788;2023-03-13T00:49:32;10.10;99.90
11577;DHT22;5844;51.496;6.788;2023-03-13T00:51:58;10.10;99.90
11577;DHT22;5844;51.496;6.788;2023-03-13T00:54:23;10.30;99.90
11577;DHT22;5844;51.496;6.788;2023-03-13T00:56:49;10.00;99.90
11577;DHT22;5844;51.496;6.788;2023-03-13T00:59:15;9.90;99.90
11577;DHT22;5844;51.496;6.788;2023-03-13T01:01:41;9.80;99.90
11577;DHT22;5844;51.496;6.788;2023-03-13T01:04:09;9.80;99.90
11577;DHT22;5844;51.496;6.788;2023-03-13T01:06:38;10.00;99.90
11577;DHT22;5844;51.496;6.788;2023-03-13T01:09:09;9.70;99.90
11577;DHT22;5844;51.496;6.788;2023-03-13T01:11:36;9.70;99.90
11577;DHT22;5844;51.496;6.788;2023-03-13T01:14:05;9.70;99.90
11577;DHT22;5844;51.496;6.788;2023-03-13T01:16:34;9.70;99.90
11577;DHT22;5844;51.496;6.788;2023-03-13T01:19:02;9.70;99.90
11577;DHT22;5844;51.496;6.788;2023-03-13T01:21:28;9.70;99.90
11577;DHT22;5844;51.496;6.788;2023-03-13T01:23:54;9.60;99.90
11577;DHT22;5844;51.496;6.788;2023-03-13T01:26:20;9.60;99.90
11577;DHT22;5844;51.496;6.788;2023-03-13T01:28:46;9.60;99.90
11577;DHT22;5844;51.496;6.788;2023-03-13T01:31:15;9.60;99.90
11577;DHT22;5844;51.496;6.788;2023-03-13T01:33:43;9.50;99.90
11577;DHT22;5844;51.496;6.788;2023-03-13T01:36:10;9.60;99.90
11577;DHT22;5844;51.496;6.788;2023-03-13T01:38:37;9.70;99.90
11577;DHT22;5844;51.496;6.788;2023-03-13T01:41:04;9.60;99.90
11577;DHT22;5844;51.496;6.788;2023-03-13T01:43:32;9.50;99.90
11577;DHT22;5844;51.496;6.788;2023-03-13T01:48:51;9.50;99.90
11577;DHT22;5844;51.496;6.788;2023-03-13T01:51:29;9.50;99.90
11577;DHT22;5844;51.496;6.788;2023-03-13T01:54:08;9.40;99.90
11577;DHT22;5844;51.496;6.788;2023-03-13T01:56:39;9.40;99.90
11577;DHT22;5844;51.496;6.788;2023-03-13T01:59:09;9.40;99.90
11577;DHT22;5844;51.496;6.788;2023-03-13T02:01:38;9.40;99.90
11577;DHT22;5844;51.496;6.788;2023-03-13T02:04:05;9.40;99.90
11577;DHT22;5844;51.496;6.788;2023-03-13T02:06:32;9.40;99.90
11577;DHT22;5844;51.496;6.788;2023-03-13T02:09:02;9.40;99.90
11577;DHT22;5844;51.496;6.788;2023-03-13T02:11:49;9.50;99.90
11577;DHT22;5844;51.496;6.788;2023-03-13T02:14:20;9.60;99.90
11577;DHT22;5844;51.496;6.788;2023-03-13T02:16:47;9.60;99.90
11577;DHT22;5844;51.496;6.788;2023-03-13T02:24:48;9.70;99.90
11577;DHT22;5844;51.496;6.788;2023-03-13T02:27:18;9.70;99.90
11577;DHT22;5844;51.496;6.788;2023-03-13T02:29:44;9.70;99.90
11577;DHT22;5844;51.496;6.788;2023-03-13T02:32:10;10.10;99.90
11577;DHT22;5844;51.496;6.788;2023-03-13T02:34:38;9.80;99.90
11577;DHT22;5844;51.496;6.788;2023-03-13T02:37:06;9.80;99.90
11577;DHT22;5844;51.496;6.788;2023-03-13T02:39:37;9.80;99.90
11577;DHT22;5844;51.496;6.788;2023-03-13T02:42:04;9.90;99.90
11577;DHT22;5844;51.496;6.788;2023-03-13T02:44:30;9.90;99.90
11577;DHT22;5844;51.496;6.788;2023-03-13T02:46:55;10.00;99.90
11577;DHT22;5844;51.496;6.788;2023-03-13T02:49:27;10.20;99.90
11577;DHT22;5844;51.496;6.788;2023-03-13T02:51:55;9.90;99.90
11577;DHT22;5844;51.496;6.788;2023-03-13T02:54:26;10.00;99.90
11577;DHT22;5844;51.496;6.788;2023-03-13T02:56:56;10.10;99.90
11577;DHT22;5844;51.496;6.788;2023-03-13T02:59:23;10.00;99.90
11577;DHT22;5844;51.496;6.788;2023-03-13T03:01:49;10.10;99.90
11577;DHT22;5844;51.496;6.788;2023-03-13T03:04:18;10.10;99.90
11577;DHT22;5844;51.496;6.788;2023-03-13T03:06:44;10.10;99.90
11577;DHT22;5844;51.496;6.788;2023-03-13T03:09:10;10.20;99.90
11577;DHT22;5844;51.496;6.788;2023-03-13T03:11:35;10.20;99.90
11577;DHT22;5844;51.496;6.788;2023-03-13T03:14:03;10.40;99.90
11577;DHT22;5844;51.496;6.788;2023-03-13T03:16:28;10.30;99.90
11577;DHT22;5844;51.496;6.788;2023-03-13T03:18:54;10.40;99.90
11577;DHT22;5844;51.496;6.788;2023-03-13T03:21:20;10.30;99.90
11577;DHT22;5844;51.496;6.788;2023-03-13T03:23:46;10.40;99.90
11577;DHT22;5844;51.496;6.788;2023-03-13T03:26:12;10.40;99.90
11577;DHT22;5844;51.496;6.788;2023-03-13T03:28:38;10.50;99.90
11577;DHT22;5844;51.496;6.788;2023-03-13T03:31:05;10.50;99.90
11577;DHT22;5844;51.496;6.788;2023-03-13T03:33:31;10.50;99.90
11577;DHT22;5844;51.496;6.788;2023-03-13T03:36:02;10.50;99.90
11577;DHT22;5844;51.496;6.788;2023-03-13T03:38:28;10.60;99.90
11577;DHT22;5844;51.496;6.788;2023-03-13T03:40:53;10.60;99.90
11577;DHT22;5844;51.496;6.788;2023-03-13T03:43:19;10.70;99.90
11577;DHT22;5844;51.496;6.788;2023-03-13T03:45:45;10.70;99.90
11577;DHT22;5844;51.496;6.788;2023-03-13T03:48:10;10.70;99.90
11577;DHT22;5844;51.496;6.788;2023-03-13T03:50:36;10.90;99.90
11577;DHT22;5844;51.496;6.788;2023-03-13T03:53:02;11.00;99.90
11577;DHT22;5844;51.496;6.788;2023-03-13T03:55:27;11.00;99.90
11577;DHT22;5844;51.496;6.788;2023-03-13T03:57:54;11.10;99.90
11577;DHT22;5844;51.496;6.788;2023-03-13T04:00:20;11.10;99.90
11577;DHT22;5844;51.496;6.788;2023-03-13T04:02:46;11.10;99.90
11577;DHT22;5844;51.496;6.788;2023-03-13T04:05:12;11.20;99.90
11577;DHT22;5844;51.496;6.788;2023-03-13T04:07:38;11.20;99.90
11577;DHT22;5844;51.496;6.788;2023-03-13T04:10:04;11.30;99.90
11577;DHT22;5844;51.496;6.788;2023-03-13T04:12:30;11.30;99.90
11577;DHT22;5844;51.496;6.788;2023-03-13T04:14:55;11.30;99.90
11577;DHT22;5844;51.496;6.788;2023-03-13T04:17:21;11.30;99.90
11577;DHT22;5844;51.496;6.788;2023-03-13T04:19:46;11.30;99.90
11577;DHT22;5844;51.496;6.788;2023-03-13T04:22:12;11.40;99.90
11577;DHT22;5844;51.496;6.788;2023-03-13T04:24:38;11.40;99.90
11577;DHT22;5844;51.496;6.788;2023-03-13T04:27:03;11.50;99.90
11577;DHT22;5844;51.496;6.788;2023-03-13T04:29:31;11.50;99.90
11577;DHT22;5844;51.496;6.788;2023-03-13T04:31:57;11.50;99.90
11577;DHT22;5844;51.496;6.788;2023-03-13T04:34:22;11.50;99.90
11577;DHT22;5844;51.496;6.788;2023-03-13T04:36:48;11.50;99.90
11577;DHT22;5844;51.496;6.788;2023-03-13T04:39:14;11.60;99.90
11577;DHT22;5844;51.496;6.788;2023-03-13T04:41:40;11.70;99.90
11577;DHT22;5844;51.496;6.788;2023-03-13T04:44:05;11.70;99.90
11577;DHT22;5844;51.496;6.788;2023-03-13T04:46:31;11.80;99.90
11577;DHT22;5844;51.496;6.788;2023-03-13T04:48:57;11.90;99.90
11577;DHT22;5844;51.496;6.788;2023-03-13T04:51:23;11.90;99.90
11577;DHT22;5844;51.496;6.788;2023-03-13T04:53:49;12.00;99.90
11577;DHT22;5844;51.496;6.788;2023-03-13T04:56:22;12.10;99.90
11577;DHT22;5844;51.496;6.788;2023-03-13T04:58:48;12.10;99.90
11577;DHT22;5844;51.496;6.788;2023-03-13T05:01:14;12.10;99.90
11577;DHT22;5844;51.496;6.788;2023-03-13T05:03:40;12.10;99.90
11577;DHT22;5844;51.496;6.788;2023-03-13T05:06:05;12.20;99.90
11577;DHT22;5844;51.496;6.788;2023-03-13T05:08:31;12.20;99.90
11577;DHT22;5844;51.496;6.788;2023-03-13T05:10:57;12.20;99.90
11577;DHT22;5844;51.496;6.788;2023-03-13T05:13:22;12.30;99.90
11577;DHT22;5844;51.496;6.788;2023-03-13T05:15:48;12.30;99.90
11577;DHT22;5844;51.496;6.788;2023-03-13T05:18:14;12.30;99.90
11577;DHT22;5844;51.496;6.788;2023-03-13T05:20:39;12.30;99.90
11577;DHT22;5844;51.496;6.788;2023-03-13T05:23:05;12.30;99.90
11577;DHT22;5844;51.496;6.788;2023-03-13T05:25:31;12.30;99.90
11577;DHT22;5844;51.496;6.788;2023-03-13T05:27:57;12.40;99.90
11577;DHT22;5844;51.496;6.788;2023-03-13T05:30:22;12.40;99.90
11577;DHT22;5844;51.496;6.788;2023-03-13T05:32:48;12.40;99.90
11577;DHT22;5844;51.496;6.788;2023-03-13T05:35:14;12.40;99.90
11577;DHT22;5844;51.496;6.788;2023-03-13T05:37:39;12.40;99.90
11577;DHT22;5844;51.496;6.788;2023-03-13T05:40:06;12.50;99.90
11577;DHT22;5844;51.496;6.788;2023-03-13T05:42:31;12.50;99.90
11577;DHT22;5844;51.496;6.788;2023-03-13T05:44:57;12.60;99.90
11577;DHT22;5844;51.496;6.788;2023-03-13T05:47:22;12.60;99.90
11577;DHT22;5844;51.496;6.788;2023-03-13T05:49:48;12.60;99.90
11577;DHT22;5844;51.496;6.788;2023-03-13T05:52:14;12.60;99.90
11577;DHT22;5844;51.496;6.788;2023-03-13T05:54:39;12.60;99.90
11577;DHT22;5844;51.496;6.788;2023-03-13T05:57:05;12.70;99.90
11577;DHT22;5844;51.496;6.788;2023-03-13T05:59:30;12.70;99.90
11577;DHT22;5844;51.496;6.788;2023-03-13T06:01:56;12.80;99.90
11577;DHT22;5844;51.496;6.788;2023-03-13T06:04:22;12.90;99.90
11577;DHT22;5844;51.496;6.788;2023-03-13T06:06:48;12.90;99.90
11577;DHT22;5844;51.496;6.788;2023-03-13T06:09:14;12.80;99.90
11577;DHT22;5844;51.496;6.788;2023-03-13T06:11:40;12.90;99.90
11577;DHT22;5844;51.496;6.788;2023-03-13T06:14:07;12.80;99.90
11577;DHT22;5844;51.496;6.788;2023-03-13T06:16:33;12.80;99.90
11577;DHT22;5844;51.496;6.788;2023-03-13T06:18:58;12.90;99.90
11577;DHT22;5844;51.496;6.788;2023-03-13T06:21:24;12.90;99.90
11577;DHT22;5844;51.496;6.788;2023-03-13T06:23:50;12.90;99.90
11577;DHT22;5844;51.496;6.788;2023-03-13T06:26:16;12.90;99.90
11577;DHT22;5844;51.496;6.788;2023-03-13T06:28:41;12.90;99.90
11577;DHT22;5844;51.496;6.788;2023-03-13T06:31:07;13.00;99.90
11577;DHT22;5844;51.496;6.788;2023-03-13T06:33:33;13.10;99.90
11577;DHT22;5844;51.496;6.788;2023-03-13T06:36:02;13.20;99.90
11577;DHT22;5844;51.496;6.788;2023-03-13T06:38:28;13.30;99.90
11577;DHT22;5844;51.496;6.788;2023-03-13T06:40:54;13.30;99.90
11577;DHT22;5844;51.496;6.788;2023-03-13T06:43:20;13.30;99.90
11577;DHT22;5844;51.496;6.788;2023-03-13T06:45:46;13.40;99.90
11577;DHT22;5844;51.496;6.788;2023-03-13T06:48:12;13.40;99.90
11577;DHT22;5844;51.496;6.788;2023-03-13T06:50:38;13.40;99.90
11577;DHT22;5844;51.496;6.788;2023-03-13T06:53:03;13.40;99.90
11577;DHT22;5844;51.496;6.788;2023-03-13T06:55:29;13.50;99.90
11577;DHT22;5844;51.496;6.788;2023-03-13T06:57:55;13.50;99.90
11577;DHT22;5844;51.496;6.788;2023-03-13T07:00:21;13.60;99.90
11577;DHT22;5844;51.496;6.788;2023-03-13T07:02:46;13.60;99.90
11577;DHT22;5844;51.496;6.788;2023-03-13T07:05:12;13.60;99.90
11577;DHT22;5844;51.496;6.788;2023-03-13T07:07:39;13.70;99.90
11577;DHT22;5844;51.496;6.788;2023-03-13T07:10:06;13.70;99.90
11577;DHT22;5844;51.496;6.788;2023-03-13T07:12:33;13.70;99.90
11577;DHT22;5844;51.496;6.788;2023-03-13T07:14:59;13.80;99.90
11577;DHT22;5844;51.496;6.788;2023-03-13T07:17:26;13.90;99.90
11577;DHT22;5844;51.496;6.788;2023-03-13T07:19:51;14.00;99.90
11577;DHT22;5844;51.496;6.788;2023-03-13T07:22:17;14.00;99.90
11577;DHT22;5844;51.496;6.788;2023-03-13T07:24:43;14.00;99.90
11577;DHT22;5844;51.496;6.788;2023-03-13T07:27:08;14.00;99.90
11577;DHT22;5844;51.496;6.788;2023-03-13T07:29:34;14.00;99.90
11577;DHT22;5844;51.496;6.788;2023-03-13T07:31:59;14.10;99.90
11577;DHT22;5844;51.496;6.788;2023-03-13T07:34:25;14.10;99.90
11577;DHT22;5844;51.496;6.788;2023-03-13T07:36:51;14.10;99.90
11577;DHT22;5844;51.496;6.788;2023-03-13T07:39:16;14.10;99.90
11577;DHT22;5844;51.496;6.788;2023-03-13T07:41:42;14.10;99.90
11577;DHT22;5844;51.496;6.788;2023-03-13T07:44:08;14.20;99.90
11577;DHT22;5844;51.496;6.788;2023-03-13T07:46:33;14.20;99.90
11577;DHT22;5844;51.496;6.788;2023-03-13T07:48:59;14.20;99.90
11577;DHT22;5844;51.496;6.788;2023-03-13T07:51:25;14.20;99.90
11577;DHT22;5844;51.496;6.788;2023-03-13T07:53:51;14.30;99.90
11577;DHT22;5844;51.496;6.788;2023-03-13T07:56:19;14.20;99.90
11577;DHT22;5844;51.496;6.788;2023-03-13T07:58:46;14.20;99.90
11577;DHT22;5844;51.496;6.788;2023-03-13T08:03:42;14.30;99.90
11577;DHT22;5844;51.496;6.788;2023-03-13T08:06:14;14.30;99.90
11577;DHT22;5844;51.496;6.788;2023-03-13T08:08:41;14.40;99.90
11577;DHT22;5844;51.496;6.788;2023-03-13T08:11:10;14.30;99.90
11577;DHT22;5844;51.496;6.788;2023-03-13T08:13:36;14.40;99.90
11577;DHT22;5844;51.496;6.788;2023-03-13T08:16:25;14.40;99.90
11577;DHT22;5844;51.496;6.788;2023-03-13T08:18:54;14.40;99.90
11577;DHT22;5844;51.496;6.788;2023-03-13T08:21:25;14.50;99.90
11577;DHT22;5844;51.496;6.788;2023-03-13T08:23:53;14.50;99.90
11577;DHT22;5844;51.496;6.788;2023-03-13T08:26:20;14.60;99.90
11577;DHT22;5844;51.496;6.788;2023-03-13T08:28:50;14.60;99.90
11577;DHT22;5844;51.496;6.788;2023-03-13T08:31:18;14.60;99.90
11577;DHT22;5844;51.496;6.788;2023-03-13T08:33:45;14.60;99.90
11577;DHT22;5844;51.496;6.788;2023-03-13T08:36:13;14.60;99.90
11577;DHT22;5844;51.496;6.788;2023-03-13T08:38:40;14.60;99.90
11577;DHT22;5844;51.496;6.788;2023-03-13T08:41:17;14.70;99.90
11577;DHT22;5844;51.496;6.788;2023-03-13T08:43:44;14.80;99.90
11577;DHT22;5844;51.496;6.788;2023-03-13T08:46:10;14.70;99.90
11577;DHT22;5844;51.496;6.788;2023-03-13T08:48:36;14.70;99.90
11577;DHT22;5844;51.496;6.788;2023-03-13T08:51:11;14.60;99.90
11577;DHT22;5844;51.496;6.788;2023-03-13T08:53:38;14.60;99.90
11577;DHT22;5844;51.496;6.788;2023-03-13T08:56:05;14.70;99.90
11577;DHT22;5844;51.496;6.788;2023-03-13T08:58:31;14.90;99.90
11577;DHT22;5844;51.496;6.788;2023-03-13T09:01:07;15.00;99.90
11577;DHT22;5844;51.496;6.788;2023-03-13T09:03:33;15.70;99.90
11577;DHT22;5844;51.496;6.788;2023-03-13T09:06:00;15.20;99.90
11577;DHT22;5844;51.496;6.788;2023-03-13T09:08:26;15.30;99.90
11577;DHT22;5844;51.496;6.788;2023-03-13T09:13:22;15.40;99.90
11577;DHT22;5844;51.496;6.788;2023-03-13T09:15:55;15.50;99.90
11577;DHT22;5844;51.496;6.788;2023-03-13T09:18:21;15.50;99.90
11577;DHT22;5844;51.496;6.788;2023-03-13T09:20:47;15.50;99.90
11577;DHT22;5844;51.496;6.788;2023-03-13T09:23:13;15.50;99.90
11577;DHT22;5844;51.496;6.788;2023-03-13T09:25:38;15.60;99.90
11577;DHT22;5844;51.496;6.788;2023-03-13T09:28:04;15.60;99.90
11577;DHT22;5844;51.496;6.788;2023-03-13T09:30:29;15.60;99.90
11577;DHT22;5844;51.496;6.788;2023-03-13T09:32:55;15.70;1.00
11577;DHT22;5844;51.496;6.788;2023-03-13T09:35:21;15.90;1.00
11577;DHT22;5844;51.496;6.788;2023-03-13T09:37:46;15.90;1.00
11577;DHT22;5844;51.496;6.788;2023-03-13T09:40:18;15.90;1.00
11577;DHT22;5844;51.496;6.788;2023-03-13T09:42:51;15.90;1.00
11577;DHT22;5844;51.496;6.788;2023-03-13T09:45:29;16.00;1.00
11577;DHT22;5844;51.496;6.788;2023-03-13T09:48:04;15.80;1.00
11577;DHT22;5844;51.496;6.788;2023-03-13T09:50:36;16.90;1.00
11577;DHT22;5844;51.496;6.788;2023-03-13T09:53:37;15.40;1.00
11577;DHT22;5844;51.496;6.788;2023-03-13T09:56:13;15.40;1.00
11577;DHT22;5844;51.496;6.788;2023-03-13T09:58:49;15.80;1.00
11577;DHT22;5844;51.496;6.788;2023-03-13T10:01:21;16.00;1.00
11577;DHT22;5844;51.496;6.788;2023-03-13T10:04:00;15.90;1.00
11577;DHT22;5844;51.496;6.788;2023-03-13T10:06:28;16.00;10.00
11577;DHT22;5844;51.496;6.788;2023-03-13T10:08:57;16.00;24.50
11577;DHT22;5844;51.496;6.788;2023-03-13T10:11:34;16.10;1.00
11577;DHT22;5844;51.496;6.788;2023-03-13T10:14:22;16.10;1.00
11577;DHT22;5844;51.496;6.788;2023-03-13T10:19:40;15.80;6.30
11577;DHT22;5844;51.496;6.788;2023-03-13T10:22:18;15.80;13.80
11577;DHT22;5844;51.496;6.788;2023-03-13T10:27:13;16.10;29.60
11577;DHT22;5844;51.496;6.788;2023-03-13T10:29:39;16.30;1.00
11577;DHT22;5844;51.496;6.788;2023-03-13T10:32:07;16.30;1.00
11577;DHT22;5844;51.496;6.788;2023-03-13T10:34:48;16.30;23.10
11577;DHT22;5844;51.496;6.788;2023-03-13T10:37:19;16.20;1.00
11577;DHT22;5844;51.496;6.788;2023-03-13T10:39:45;16.20;1.00
11577;DHT22;5844;51.496;6.788;2023-03-13T10:44:45;16.80;1.00
11577;DHT22;5844;51.496;6.788;2023-03-13T10:47:15;17.10;10.50
11577;DHT22;5844;51.496;6.788;2023-03-13T10:49:49;17.10;1.00
11577;DHT22;5844;51.496;6.788;2023-03-13T10:52:41;16.90;1.00
11577;DHT22;5844;51.496;6.788;2023-03-13T10:55:13;16.90;1.00
11577;DHT22;5844;51.496;6.788;2023-03-13T10:57:42;16.70;18.80
11577;DHT22;5844;51.496;6.788;2023-03-13T11:00:43;16.70;18.20
11577;DHT22;5844;51.496;6.788;2023-03-13T11:05:43;16.80;11.40
11577;DHT22;5844;51.496;6.788;2023-03-13T11:11:15;16.70;3.60
11577;DHT22;5844;51.496;6.788;2023-03-13T11:13:43;17.40;30.50
11577;DHT22;5844;51.496;6.788;2023-03-13T11:16:22;16.80;1.00
11577;DHT22;5844;51.496;6.788;2023-03-13T11:22:24;16.90;29.80
11577;DHT22;5844;51.496;6.788;2023-03-13T11:24:55;17.10;35.70
11577;DHT22;5844;51.496;6.788;2023-03-13T11:27:28;17.00;23.70
11577;DHT22;5844;51.496;6.788;2023-03-13T11:32:52;17.00;19.20
11577;DHT22;5844;51.496;6.788;2023-03-13T11:35:46;17.00;14.30
11577;DHT22;5844;51.496;6.788;2023-03-13T11:38:34;17.00;9.60
11577;DHT22;5844;51.496;6.788;2023-03-13T11:44:11;17.00;1.00
11577;DHT22;5844;51.496;6.788;2023-03-13T11:49:27;17.00;1.00
11577;DHT22;5844;51.496;6.788;2023-03-13T11:58:10;17.30;6.40
11577;DHT22;5844;51.496;6.788;2023-03-13T12:00:44;17.40;13.90
11577;DHT22;5844;51.496;6.788;2023-03-13T12:05:56;17.50;1.00
11577;DHT22;5844;51.496;6.788;2023-03-13T12:08:29;17.30;1.00
11577;DHT22;5844;51.496;6.788;2023-03-13T12:11:32;17.30;1.00
11577;DHT22;5844;51.496;6.788;2023-03-13T12:14:04;17.30;1.00
11577;DHT22;5844;51.496;6.788;2023-03-13T12:17:05;17.30;1.00
11577;DHT22;5844;51.496;6.788;2023-03-13T12:19:54;17.30;1.00
11577;DHT22;5844;51.496;6.788;2023-03-13T12:25:24;17.30;11.80
11577;DHT22;5844;51.496;6.788;2023-03-13T12:28:05;17.20;10.40
11577;DHT22;5844;51.496;6.788;2023-03-13T12:30:44;17.20;11.60
11577;DHT22;5844;51.496;6.788;2023-03-13T12:33:28;17.30;1.00
11577;DHT22;5844;51.496;6.788;2023-03-13T12:38:47;17.70;1.00
11577;DHT22;5844;51.496;6.788;2023-03-13T12:41:21;17.50;1.00
11577;DHT22;5844;51.496;6.788;2023-03-13T12:43:50;17.50;1.00
11577;DHT22;5844;51.496;6.788;2023-03-13T12:46:40;17.40;1.00
11577;DHT22;5844;51.496;6.788;2023-03-13T12:49:28;17.40;1.00
11577;DHT22;5844;51.496;6.788;2023-03-13T12:52:11;17.60;1.00
11577;DHT22;5844;51.496;6.788;2023-03-13T12:58:04;17.60;1.00
11577;DHT22;5844;51.496;6.788;2023-03-13T13:00:35;17.30;11.40
11577;DHT22;5844;51.496;6.788;2023-03-13T13:08:26;17.40;4.70
11577;DHT22;5844;51.496;6.788;2023-03-13T13:14:00;17.40;1.00
11577;DHT22;5844;51.496;6.788;2023-03-13T13:16:27;17.40;3.50
11577;DHT22;5844;51.496;6.788;2023-03-13T13:18:53;17.40;1.00
11577;DHT22;5844;51.496;6.788;2023-03-13T13:21:21;17.90;1.00
11577;DHT22;5844;51.496;6.788;2023-03-13T13:23:48;18.00;1.00
11577;DHT22;5844;51.496;6.788;2023-03-13T13:39:48;17.60;1.00
11577;DHT22;5844;51.496;6.788;2023-03-13T13:42:47;17.60;1.00
11577;DHT22;5844;51.496;6.788;2023-03-13T13:47:40;17.50;1.00
11577;DHT22;5844;51.496;6.788;2023-03-13T13:50:26;17.40;1.00
11577;DHT22;5844;51.496;6.788;2023-03-13T13:53:29;17.30;1.00
11577;DHT22;5844;51.496;6.788;2023-03-13T13:55:55;17.30;1.00
11577;DHT22;5844;51.496;6.788;2023-03-13T13:58:24;17.20;1.00
11577;DHT22;5844;51.496;6.788;2023-03-13T14:00:54;17.40;1.00
11577;DHT22;5844;51.496;6.788;2023-03-13T14:03:27;17.20;1.00
11577;DHT22;5844;51.496;6.788;2023-03-13T14:06:00;17.20;1.00
11577;DHT22;5844;51.496;6.788;2023-03-13T14:08:30;17.30;1.00
11577;DHT22;5844;51.496;6.788;2023-03-13T14:11:07;17.20;1.00
11577;DHT22;5844;51.496;6.788;2023-03-13T14:13:39;17.20;1.00
11577;DHT22;5844;51.496;6.788;2023-03-13T14:16:24;17.10;1.00
11577;DHT22;5844;51.496;6.788;2023-03-13T14:18:50;17.10;7.20
11577;DHT22;5844;51.496;6.788;2023-03-13T14:21:22;17.10;11.00
11577;DHT22;5844;51.496;6.788;2023-03-13T14:23:48;17.00;2.50
11577;DHT22;5844;51.496;6.788;2023-03-13T14:26:23;17.00;4.30
11577;DHT22;5844;51.496;6.788;2023-03-13T14:28:57;17.00;7.00
11577;DHT22;5844;51.496;6.788;2023-03-13T14:33:49;17.20;6.10
11577;DHT22;5844;51.496;6.788;2023-03-13T14:36:15;17.00;4.60
11577;DHT22;5844;51.496;6.788;2023-03-13T14:38:50;17.00;2.10
11577;DHT22;5844;51.496;6.788;2023-03-13T14:41:35;17.00;1.00
11577;DHT22;5844;51.496;6.788;2023-03-13T14:44:09;17.10;1.00
11577;DHT22;5844;51.496;6.788;2023-03-13T14:46:39;17.00;1.00
11577;DHT22;5844;51.496;6.788;2023-03-13T14:49:18;17.10;1.00
11577;DHT22;5844;51.496;6.788;2023-03-13T14:51:45;17.20;1.00
11577;DHT22;5844;51.496;6.788;2023-03-13T14:54:30;17.30;1.00
11577;DHT22;5844;51.496;6.788;2023-03-13T14:57:13;17.80;1.00
11577;DHT22;5844;51.496;6.788;2023-03-13T14:59:40;18.00;3.50
11577;DHT22;5844;51.496;6.788;2023-03-13T15:02:27;17.70;1.50
11577;DHT22;5844;51.496;6.788;2023-03-13T15:05:05;17.50;2.50
11577;DHT22;5844;51.496;6.788;2023-03-13T15:10:01;17.40;1.00
11577;DHT22;5844;51.496;6.788;2023-03-13T15:12:27;17.30;1.00
11577;DHT22;5844;51.496;6.788;2023-03-13T15:14:54;17.40;1.00
11577;DHT22;5844;51.496;6.788;2023-03-13T15:17:22;17.30;1.00
11577;DHT22;5844;51.496;6.788;2023-03-13T15:19:56;17.30;1.00
11577;DHT22;5844;51.496;6.788;2023-03-13T15:22:36;17.30;1.00
11577;DHT22;5844;51.496;6.788;2023-03-13T15:25:02;17.30;1.00
11577;DHT22;5844;51.496;6.788;2023-03-13T15:27:28;17.30;1.00
11577;DHT22;5844;51.496;6.788;2023-03-13T15:29:54;17.20;1.00
11577;DHT22;5844;51.496;6.788;2023-03-13T15:32:26;17.50;1.00
11577;DHT22;5844;51.496;6.788;2023-03-13T15:34:53;18.30;1.00
11577;DHT22;5844;51.496;6.788;2023-03-13T15:37:25;19.60;1.00
11577;DHT22;5844;51.496;6.788;2023-03-13T15:39:52;20.20;1.00
11577;DHT22;5844;51.496;6.788;2023-03-13T15:42:18;20.50;1.00
11577;DHT22;5844;51.496;6.788;2023-03-13T15:44:44;20.80;1.00
11577;DHT22;5844;51.496;6.788;2023-03-13T15:47:20;21.20;1.00
11577;DHT22;5844;51.496;6.788;2023-03-13T15:49:46;21.60;1.00
11577;DHT22;5844;51.496;6.788;2023-03-13T15:52:17;21.40;1.00
11577;DHT22;5844;51.496;6.788;2023-03-13T15:54:47;21.10;1.00
11577;DHT22;5844;51.496;6.788;2023-03-13T15:57:20;20.60;1.00
11577;DHT22;5844;51.496;6.788;2023-03-13T15:59:48;20.40;1.00
11577;DHT22;5844;51.496;6.788;2023-03-13T16:02:16;20.70;1.00
11577;DHT22;5844;51.496;6.788;2023-03-13T16:04:43;20.50;1.00
11577;DHT22;5844;51.496;6.788;2023-03-13T16:07:13;20.30;1.00
11577;DHT22;5844;51.496;6.788;2023-03-13T16:09:41;20.00;1.00
11577;DHT22;5844;51.496;6.788;2023-03-13T16:12:08;19.50;1.00
11577;DHT22;5844;51.496;6.788;2023-03-13T16:14:34;19.00;1.00
11577;DHT22;5844;51.496;6.788;2023-03-13T16:17:01;18.10;1.00
11577;DHT22;5844;51.496;6.788;2023-03-13T16:19:28;17.60;1.00
11577;DHT22;5844;51.496;6.788;2023-03-13T16:21:54;17.30;1.00
11577;DHT22;5844;51.496;6.788;2023-03-13T16:24:19;17.10;1.00
11577;DHT22;5844;51.496;6.788;2023-03-13T16:26:45;16.90;1.00
11577;DHT22;5844;51.496;6.788;2023-03-13T16:29:13;16.80;1.00
11577;DHT22;5844;51.496;6.788;2023-03-13T16:31:39;16.70;1.00
11577;DHT22;5844;51.496;6.788;2023-03-13T16:34:05;16.50;1.00
11577;DHT22;5844;51.496;6.788;2023-03-13T16:36:33;16.60;1.00
11577;DHT22;5844;51.496;6.788;2023-03-13T16:39:04;16.40;1.00
11577;DHT22;5844;51.496;6.788;2023-03-13T16:41:32;16.40;1.00
11577;DHT22;5844;51.496;6.788;2023-03-13T16:43:58;16.30;1.00
11577;DHT22;5844;51.496;6.788;2023-03-13T16:46:34;16.20;1.00
11577;DHT22;5844;51.496;6.788;2023-03-13T16:49:00;16.20;1.00
11577;DHT22;5844;51.496;6.788;2023-03-13T16:51:26;16.00;1.00
11577;DHT22;5844;51.496;6.788;2023-03-13T16:53:54;16.10;1.00
11577;DHT22;5844;51.496;6.788;2023-03-13T16:56:37;16.00;1.00
11577;DHT22;5844;51.496;6.788;2023-03-13T16:59:06;15.90;1.00
11577;DHT22;5844;51.496;6.788;2023-03-13T17:01:31;15.90;1.00
11577;DHT22;5844;51.496;6.788;2023-03-13T17:03:58;15.90;1.00
11577;DHT22;5844;51.496;6.788;2023-03-13T17:06:26;15.90;1.00
11577;DHT22;5844;51.496;6.788;2023-03-13T17:08:52;15.90;1.00
11577;DHT22;5844;51.496;6.788;2023-03-13T17:11:20;15.80;1.00
11577;DHT22;5844;51.496;6.788;2023-03-13T17:13:47;15.70;1.00
11577;DHT22;5844;51.496;6.788;2023-03-13T17:16:22;15.70;1.00
11577;DHT22;5844;51.496;6.788;2023-03-13T17:18:51;15.70;1.00
11577;DHT22;5844;51.496;6.788;2023-03-13T17:21:24;15.60;1.00
11577;DHT22;5844;51.496;6.788;2023-03-13T17:23:51;15.60;1.00
11577;DHT22;5844;51.496;6.788;2023-03-13T17:26:23;15.60;1.00
11577;DHT22;5844;51.496;6.788;2023-03-13T17:28:51;15.60;1.00
11577;DHT22;5844;51.496;6.788;2023-03-13T17:31:18;15.50;1.00
11577;DHT22;5844;51.496;6.788;2023-03-13T17:33:45;15.50;1.00